createdAt,value
2019-05-26T00:00:13.334Z,11.51
2019-05-26T00:02:43.667Z,11.42
2019-05-26T00:05:13.552Z,11.40
2019-05-26T00:07:45.641Z,11.46
2019-05-26T00:10:15.309Z,11.51
2019-05-26T00:12:44.761Z,11.53
2019-05-26T00:15:14.574Z,11.51
2019-05-26T00:17:44.078Z,11.48
2019-05-26T00:20:14.836Z,11.42
2019-05-26T00:22:44.304Z,11.40
2019-05-26T00:25:14.474Z,11.38
2019-05-26T00:27:43.932Z,11.38
2019-05-26T00:30:13.973Z,11.28
2019-05-26T00:32:43.446Z,11.15
2019-05-26T00:35:13.378Z,11.05
2019-05-26T00:37:49.870Z,11.03
2019-05-26T00:40:14.807Z,10.96
2019-05-26T00:42:44.360Z,10.93
2019-05-26T00:45:13.961Z,10.86
2019-05-26T00:47:43.466Z,10.79
2019-05-26T00:50:15.007Z,10.67
2019-05-26T00:52:44.491Z,10.67
2019-05-26T00:55:14.732Z,10.64
2019-05-26T00:57:44.211Z,10.69
2019-05-26T01:00:14.040Z,10.86
2019-05-26T01:02:43.785Z,10.90
2019-05-26T01:05:13.958Z,10.92
2019-05-26T01:07:43.613Z,10.90
2019-05-26T01:10:13.433Z,10.86
2019-05-26T01:12:43.566Z,10.82
2019-05-26T01:15:13.442Z,10.76
2019-05-26T01:17:43.190Z,10.75
2019-05-26T01:20:13.362Z,10.75
2019-05-26T01:22:43.094Z,10.75
2019-05-26T01:25:12.748Z,10.76
2019-05-26T01:27:42.698Z,10.77
2019-05-26T01:30:12.516Z,10.81
2019-05-26T01:32:42.156Z,10.86
2019-05-26T01:35:12.880Z,10.95
2019-05-26T01:37:43.387Z,11.05
2019-05-26T01:40:13.298Z,11.13
2019-05-26T01:42:43.164Z,11.24
2019-05-26T01:45:12.717Z,11.39
2019-05-26T01:47:42.489Z,11.49
2019-05-26T01:50:12.208Z,11.55
2019-05-26T01:52:41.765Z,11.57
2019-05-26T01:55:11.281Z,11.60
2019-05-26T01:57:40.791Z,11.60
2019-05-26T02:00:10.666Z,11.56
2019-05-26T02:02:40.231Z,11.45
2019-05-26T02:05:09.761Z,11.32
2019-05-26T02:07:39.268Z,11.22
2019-05-26T02:10:08.811Z,11.11
2019-05-26T02:12:38.624Z,10.95
2019-05-26T02:15:08.570Z,10.85
2019-05-26T02:17:38.521Z,10.73
2019-05-26T02:20:09.206Z,10.58
2019-05-26T02:22:39.032Z,10.40
2019-05-26T02:25:09.439Z,10.24
2019-05-26T02:27:39.242Z,10.15
2019-05-26T02:30:10.123Z,10.06
2019-05-26T02:32:39.666Z,9.96
2019-05-26T02:35:09.574Z,9.85
2019-05-26T02:37:39.062Z,9.80
2019-05-26T02:40:09.532Z,9.73
2019-05-26T02:42:39.251Z,9.71
2019-05-26T02:45:12.158Z,9.62
2019-05-26T02:47:41.636Z,9.56
2019-05-26T02:50:11.325Z,9.52
2019-05-26T02:52:41.205Z,9.43
2019-05-26T02:55:11.396Z,9.33
2019-05-26T02:57:41.243Z,9.33
2019-05-26T03:00:13.981Z,9.34
2019-05-26T03:02:43.758Z,9.35
2019-05-26T03:05:13.862Z,9.25
2019-05-26T03:07:43.847Z,9.27
2019-05-26T03:10:16.439Z,9.27
2019-05-26T03:12:47.457Z,9.24
2019-05-26T03:15:16.982Z,9.24
2019-05-26T03:17:48.113Z,9.25
2019-05-26T03:20:18.017Z,9.25
2019-05-26T03:22:49.310Z,9.19
2019-05-26T03:25:18.736Z,9.19
2019-05-26T03:27:48.541Z,9.23
2019-05-26T03:30:19.180Z,9.30
2019-05-26T03:32:49.200Z,9.29
2019-05-26T03:35:18.895Z,9.25
2019-05-26T03:37:48.353Z,9.24
2019-05-26T03:40:17.905Z,9.24
2019-05-26T03:42:47.389Z,9.32
2019-05-26T03:45:41.445Z,9.40
2019-05-26T03:48:11.401Z,9.42
2019-05-26T03:50:40.893Z,9.43
2019-05-26T03:56:22.850Z,9.61
2019-05-26T03:58:52.503Z,9.78
2019-05-26T04:01:22.146Z,9.93
2019-05-26T04:03:51.637Z,10.08
2019-05-26T04:06:21.382Z,10.21
2019-05-26T04:08:50.875Z,10.28
2019-05-26T04:11:20.357Z,10.28
2019-05-26T04:13:49.862Z,10.25
2019-05-26T04:16:19.373Z,10.25
2019-05-26T04:18:48.863Z,10.25
2019-05-26T04:21:18.343Z,10.24
2019-05-26T04:23:47.829Z,10.20
2019-05-26T04:26:17.296Z,10.22
2019-05-26T04:28:46.838Z,10.25
2019-05-26T04:31:20.111Z,10.29
2019-05-26T04:33:49.583Z,10.34
2019-05-26T04:36:19.069Z,10.40
2019-05-26T04:38:48.577Z,10.45
2019-05-26T04:41:18.076Z,10.52
2019-05-26T04:43:47.553Z,10.57
2019-05-26T04:46:17.320Z,10.63
2019-05-26T04:48:46.947Z,10.73
2019-05-26T04:51:16.464Z,10.85
2019-05-26T04:53:45.921Z,10.96
2019-05-26T04:56:15.401Z,11.05
2019-05-26T04:58:44.923Z,11.14
2019-05-26T05:01:30.705Z,11.24
2019-05-26T05:04:06.784Z,11.34
2019-05-26T05:06:42.295Z,11.44
2019-05-26T05:09:16.837Z,11.54
2019-05-26T05:12:08.778Z,11.65
2019-05-26T05:14:38.268Z,11.76
2019-05-26T05:17:07.748Z,11.93
2019-05-26T05:19:37.232Z,12.00
2019-05-26T05:22:06.710Z,12.07
2019-05-26T05:24:36.187Z,12.12
2019-05-26T05:27:05.668Z,12.20
2019-05-26T05:29:35.131Z,12.50
2019-05-26T05:32:04.780Z,13.03
2019-05-26T05:34:34.246Z,13.76
2019-05-26T05:37:03.741Z,14.74
2019-05-26T05:39:33.222Z,16.03
2019-05-26T05:42:02.698Z,17.19
2019-05-26T05:44:32.175Z,17.51
2019-05-26T05:47:01.665Z,18.47
2019-05-26T05:49:31.140Z,18.77
2019-05-26T05:52:00.608Z,19.06
2019-05-26T05:54:30.070Z,18.53
2019-05-26T05:56:59.548Z,19.96
2019-05-26T05:59:29.033Z,20.32
2019-05-26T06:01:58.515Z,21.18
2019-05-26T06:04:28.358Z,21.65
2019-05-26T06:06:57.834Z,22.06
2019-05-26T06:09:27.567Z,21.75
2019-05-26T06:11:57.413Z,23.34
2019-05-26T06:14:26.895Z,23.65
2019-05-26T06:16:56.374Z,23.33
2019-05-26T06:19:25.865Z,24.04
2019-05-26T06:21:55.401Z,23.35
2019-05-26T06:24:24.866Z,21.59
2019-05-26T06:26:54.356Z,20.88
2019-05-26T06:29:23.822Z,22.56
2019-05-26T06:31:53.542Z,23.42
2019-05-26T06:34:23.329Z,24.68
2019-05-26T06:36:53.126Z,25.49
2019-05-26T06:39:22.580Z,25.39
2019-05-26T06:41:52.077Z,25.53
2019-05-26T06:44:21.585Z,25.53
2019-05-26T06:46:51.085Z,25.78
2019-05-26T06:49:20.611Z,26.25
2019-05-26T06:51:50.063Z,26.77
2019-05-26T06:54:19.673Z,26.91
2019-05-26T06:56:49.499Z,26.52
2019-05-26T06:59:19.043Z,25.43
2019-05-26T07:01:48.653Z,25.75
2019-05-26T07:04:18.438Z,26.87
2019-05-26T07:06:47.903Z,26.38
2019-05-26T07:09:17.763Z,27.08
2019-05-26T07:11:57.005Z,26.91
2019-05-26T07:14:18.776Z,27.18
2019-05-26T07:16:48.303Z,27.20
2019-05-26T07:19:18.040Z,26.34
2019-05-26T07:21:47.501Z,26.18
2019-05-26T07:24:16.957Z,26.09
2019-05-26T07:26:46.414Z,26.66
2019-05-26T07:29:16.182Z,27.08
2019-05-26T07:31:45.652Z,26.79
2019-05-26T07:34:15.506Z,27.02
2019-05-26T07:36:44.951Z,26.78
2019-05-26T07:39:14.430Z,26.84
2019-05-26T07:41:43.877Z,27.25
2019-05-26T07:44:13.330Z,28.36
2019-05-26T07:46:42.790Z,29.36
2019-05-26T07:49:12.539Z,29.14
2019-05-26T07:51:42.267Z,29.70
2019-05-26T07:54:25.266Z,28.77
2019-05-26T07:56:43.238Z,28.72
2019-05-26T07:59:13.126Z,29.93
2019-05-26T08:01:42.661Z,29.91
2019-05-26T08:04:12.134Z,28.38
2019-05-26T08:06:41.774Z,28.14
2019-05-26T08:09:11.253Z,29.03
2019-05-26T08:11:40.721Z,29.30
2019-05-26T08:14:10.189Z,28.33
2019-05-26T08:16:39.649Z,28.25
2019-05-26T08:19:09.161Z,28.71
2019-05-26T08:21:38.612Z,28.95
2019-05-26T08:24:08.106Z,29.68
2019-05-26T08:26:37.581Z,28.91
2019-05-26T08:29:07.457Z,29.27
2019-05-26T08:31:37.040Z,27.51
2019-05-26T08:34:06.492Z,28.03
2019-05-26T08:36:35.987Z,29.16
2019-05-26T08:39:07.614Z,29.81
2019-05-26T08:41:37.367Z,29.26
2019-05-26T08:44:06.896Z,29.12
2019-05-26T08:46:36.351Z,25.67
2019-05-26T08:49:06.027Z,26.04
2019-05-26T08:51:35.482Z,27.45
2019-05-26T08:54:05.385Z,28.45
2019-05-26T08:56:34.835Z,29.04
2019-05-26T08:59:04.364Z,29.27
2019-05-26T09:01:33.814Z,29.04
2019-05-26T09:04:03.296Z,28.99
2019-05-26T09:06:32.741Z,29.14
2019-05-26T09:09:02.199Z,28.86
2019-05-26T09:11:31.966Z,29.66
2019-05-26T09:14:01.446Z,30.37
2019-05-26T09:16:30.904Z,29.99
2019-05-26T09:19:00.633Z,31.00
2019-05-26T09:21:30.076Z,31.14
2019-05-26T09:23:59.911Z,30.58
2019-05-26T09:26:29.361Z,31.18
2019-05-26T09:28:59.115Z,31.58
2019-05-26T09:31:28.576Z,29.71
2019-05-26T09:33:58.202Z,29.20
2019-05-26T09:36:27.936Z,30.87
2019-05-26T09:38:57.429Z,31.20
2019-05-26T09:41:26.902Z,29.79
2019-05-26T09:43:56.685Z,28.55
2019-05-26T09:46:26.083Z,29.38
2019-05-26T09:48:55.543Z,29.95
2019-05-26T09:51:25.281Z,29.11
2019-05-26T09:54:01.772Z,28.81
2019-05-26T09:56:25.910Z,28.63
2019-05-26T09:58:55.929Z,28.27
2019-05-26T10:01:25.564Z,27.35
2019-05-26T10:03:55.109Z,28.38
2019-05-26T10:06:24.509Z,28.79
2019-05-26T10:08:53.970Z,29.83
2019-05-26T10:11:23.429Z,30.46
2019-05-26T10:13:52.899Z,31.15
2019-05-26T10:16:22.389Z,31.61
2019-05-26T10:18:51.824Z,32.11
2019-05-26T10:21:21.303Z,31.40
2019-05-26T10:23:53.027Z,31.92
2019-05-26T10:26:21.978Z,30.63
2019-05-26T10:28:51.378Z,30.95
2019-05-26T10:31:21.184Z,31.17
2019-05-26T10:33:51.897Z,31.75
2019-05-26T10:36:21.374Z,32.83
2019-05-26T10:38:50.819Z,33.75
2019-05-26T10:41:20.350Z,31.61
2019-05-26T10:43:49.805Z,31.15
2019-05-26T10:46:19.547Z,30.73
2019-05-26T10:48:49.025Z,30.93
2019-05-26T10:51:18.522Z,31.18
2019-05-26T10:53:48.114Z,31.64
2019-05-26T10:56:17.838Z,31.28
2019-05-26T10:58:47.308Z,30.50
2019-05-26T11:01:16.775Z,30.30
2019-05-26T11:03:46.240Z,30.66
2019-05-26T11:06:15.951Z,31.32
2019-05-26T11:08:45.403Z,31.27
2019-05-26T11:11:14.862Z,32.21
2019-05-26T11:13:44.611Z,32.01
2019-05-26T11:16:14.139Z,32.82
2019-05-26T11:18:43.623Z,32.64
2019-05-26T11:21:13.156Z,33.10
2019-05-26T11:23:43.251Z,33.14
2019-05-26T11:26:12.728Z,32.61
2019-05-26T11:28:42.197Z,31.30
2019-05-26T11:31:11.645Z,31.23
2019-05-26T11:33:41.116Z,31.39
2019-05-26T11:36:10.579Z,31.57
2019-05-26T11:38:40.186Z,31.84
2019-05-26T11:41:09.675Z,31.30
2019-05-26T11:43:39.145Z,31.07
2019-05-26T11:46:08.597Z,31.45
2019-05-26T11:48:39.350Z,31.46
2019-05-26T11:51:09.151Z,32.93
2019-05-26T11:53:38.756Z,33.30
2019-05-26T11:56:08.176Z,33.15
2019-05-26T11:58:37.793Z,32.77
2019-05-26T12:01:07.249Z,33.12
2019-05-26T12:03:36.696Z,32.84
2019-05-26T12:06:06.154Z,32.45
2019-05-26T12:08:36.007Z,31.70
2019-05-26T12:11:05.706Z,31.15
2019-05-26T12:13:36.724Z,30.82
2019-05-26T12:16:06.317Z,30.44
2019-05-26T12:18:35.949Z,29.55
2019-05-26T12:21:05.585Z,29.41
2019-05-26T12:23:35.061Z,29.83
2019-05-26T12:26:04.877Z,30.09
2019-05-26T12:28:34.607Z,29.96
2019-05-26T12:31:04.417Z,29.63
2019-05-26T12:33:33.874Z,29.59
2019-05-26T12:36:03.326Z,29.75
2019-05-26T12:38:34.476Z,29.94
2019-05-26T12:41:04.059Z,30.05
2019-05-26T12:43:33.516Z,29.78
2019-05-26T12:46:02.983Z,29.50
2019-05-26T12:48:32.708Z,29.38
2019-05-26T12:51:02.153Z,28.86
2019-05-26T12:53:31.621Z,28.45
2019-05-26T12:56:01.441Z,28.49
2019-05-26T12:58:30.907Z,28.65
2019-05-26T13:01:00.689Z,29.54
2019-05-26T13:03:30.148Z,29.98
2019-05-26T13:05:59.688Z,29.92
2019-05-26T13:08:29.572Z,29.78
2019-05-26T13:10:59.404Z,30.08
2019-05-26T13:13:28.870Z,30.16
2019-05-26T13:15:58.320Z,30.19
2019-05-26T13:18:27.783Z,30.66
2019-05-26T13:20:57.234Z,31.61
2019-05-26T13:23:26.693Z,31.42
2019-05-26T13:25:56.507Z,31.62
2019-05-26T13:28:25.967Z,31.03
2019-05-26T13:30:57.545Z,30.73
2019-05-26T13:33:27.668Z,30.48
2019-05-26T13:35:57.156Z,30.42
2019-05-26T13:38:26.656Z,30.47
2019-05-26T13:40:56.198Z,30.30
2019-05-26T13:43:25.670Z,31.06
2019-05-26T13:45:55.108Z,30.30
2019-05-26T13:48:24.634Z,30.33
2019-05-26T13:50:54.387Z,29.87
2019-05-26T13:53:23.919Z,30.72
2019-05-26T13:55:53.414Z,30.74
2019-05-26T13:58:23.202Z,30.42
2019-05-26T14:00:52.672Z,30.68
2019-05-26T14:03:24.343Z,30.45
2019-05-26T14:05:53.570Z,31.06
2019-05-26T14:08:23.583Z,31.07
2019-05-26T14:10:53.500Z,30.29
2019-05-26T14:13:22.969Z,30.30
2019-05-26T14:15:54.614Z,30.08
2019-05-26T14:18:24.704Z,29.73
2019-05-26T14:20:54.152Z,29.85
2019-05-26T14:23:23.610Z,29.84
2019-05-26T14:25:53.130Z,30.09
2019-05-26T14:28:22.655Z,29.63
2019-05-26T14:30:52.596Z,30.37
2019-05-26T14:33:22.077Z,30.35
2019-05-26T14:35:51.698Z,29.94
2019-05-26T14:38:21.161Z,29.43
2019-05-26T14:40:50.911Z,29.44
2019-05-26T14:43:20.438Z,28.79
2019-05-26T14:45:53.667Z,29.42
2019-05-26T14:48:21.031Z,29.55
2019-05-26T14:50:50.502Z,29.59
2019-05-26T14:53:19.978Z,29.41
2019-05-26T14:55:49.436Z,28.97
2019-05-26T14:58:18.945Z,28.77
2019-05-26T15:00:48.498Z,29.07
2019-05-26T15:03:18.013Z,29.01
2019-05-26T15:05:47.941Z,28.41
2019-05-26T15:08:17.394Z,28.32
2019-05-26T15:10:46.837Z,28.55
2019-05-26T15:13:16.295Z,28.45
2019-05-26T15:15:45.997Z,28.49
2019-05-26T15:18:15.449Z,28.88
2019-05-26T15:20:44.924Z,28.35
2019-05-26T15:23:14.509Z,28.18
2019-05-26T15:25:44.017Z,27.90
2019-05-26T15:28:13.474Z,27.76
2019-05-26T15:30:43.687Z,27.75
2019-05-26T15:33:14.392Z,27.71
2019-05-26T15:35:45.081Z,27.29
2019-05-26T15:38:15.017Z,27.12
2019-05-26T15:40:44.476Z,26.89
2019-05-26T15:43:13.950Z,26.60
2019-05-26T15:45:43.415Z,26.75
2019-05-26T15:48:12.894Z,26.70
2019-05-26T15:50:42.423Z,26.32
2019-05-26T15:53:11.976Z,26.12
2019-05-26T15:55:42.697Z,26.09
2019-05-26T15:58:12.492Z,26.45
2019-05-26T16:00:42.441Z,26.24
2019-05-26T16:03:12.142Z,26.08
2019-05-26T16:05:41.873Z,26.43
2019-05-26T16:08:11.312Z,26.22
2019-05-26T16:10:40.787Z,26.36
2019-05-26T16:13:10.237Z,26.35
2019-05-26T16:15:39.700Z,26.67
2019-05-26T16:18:09.218Z,27.08
2019-05-26T16:20:38.687Z,27.07
2019-05-26T16:23:09.135Z,27.06
2019-05-26T16:25:40.603Z,26.80
2019-05-26T16:28:10.051Z,26.85
2019-05-26T16:30:41.301Z,26.72
2019-05-26T16:33:10.819Z,26.77
2019-05-26T16:35:40.329Z,26.69
2019-05-26T16:38:09.766Z,26.49
2019-05-26T16:40:39.312Z,26.46
2019-05-26T16:43:08.767Z,26.56
2019-05-26T16:45:38.247Z,26.36
2019-05-26T16:48:07.690Z,26.30
2019-05-26T16:50:37.157Z,26.27
2019-05-26T16:53:07.013Z,26.29
2019-05-26T16:55:36.447Z,26.32
2019-05-26T16:58:06.971Z,26.16
2019-05-26T17:00:36.774Z,26.09
2019-05-26T17:03:06.883Z,26.04
2019-05-26T17:05:36.950Z,26.03
2019-05-26T17:08:06.413Z,25.72
2019-05-26T17:10:35.952Z,25.63
2019-05-26T17:13:05.389Z,25.57
2019-05-26T17:15:35.813Z,25.47
2019-05-26T17:18:05.911Z,25.14
2019-05-26T17:20:35.418Z,25.12
2019-05-26T17:23:04.982Z,24.69
2019-05-26T17:25:34.440Z,24.48
2019-05-26T17:28:03.897Z,24.30
2019-05-26T17:30:33.600Z,24.15
2019-05-26T17:33:03.328Z,24.06
2019-05-26T17:35:32.781Z,23.95
2019-05-26T17:38:02.326Z,23.89
2019-05-26T17:40:31.784Z,23.95
2019-05-26T17:43:01.226Z,23.77
2019-05-26T17:45:30.690Z,23.63
2019-05-26T17:48:00.417Z,23.44
2019-05-26T17:50:29.881Z,23.34
2019-05-26T17:52:59.418Z,23.19
2019-05-26T17:55:28.946Z,23.06
2019-05-26T17:57:58.428Z,22.85
2019-05-26T18:00:28.214Z,22.74
2019-05-26T18:02:57.825Z,22.64
2019-05-26T18:05:27.457Z,22.55
2019-05-26T18:07:56.890Z,22.44
2019-05-26T18:10:26.686Z,22.34
2019-05-26T18:12:56.221Z,22.15
2019-05-26T18:15:25.699Z,22.07
2019-05-26T18:17:55.213Z,21.99
2019-05-26T18:20:24.731Z,21.89
2019-05-26T18:22:54.399Z,21.82
2019-05-26T18:25:24.136Z,21.70
2019-05-26T18:27:53.632Z,21.55
2019-05-26T18:30:23.561Z,21.46
2019-05-26T18:32:53.109Z,21.34
2019-05-26T18:35:22.553Z,21.22
2019-05-26T18:37:53.265Z,21.09
2019-05-26T18:40:22.739Z,20.95
2019-05-26T18:42:52.273Z,20.82
2019-05-26T18:45:21.988Z,20.68
2019-05-26T18:48:02.411Z,20.57
2019-05-26T18:50:22.590Z,20.46
2019-05-26T18:52:52.075Z,20.34
2019-05-26T18:55:21.527Z,20.22
2019-05-26T18:57:51.270Z,20.06
2019-05-26T19:00:22.127Z,19.92
2019-05-26T19:02:51.806Z,19.76
2019-05-26T19:05:32.815Z,19.58
2019-05-26T19:07:52.645Z,19.40
2019-05-26T19:10:22.106Z,19.21
2019-05-26T19:12:51.596Z,19.06
2019-05-26T19:15:21.148Z,18.90
2019-05-26T19:17:50.917Z,18.77
2019-05-26T19:20:20.359Z,18.64
2019-05-26T19:22:53.163Z,18.49
2019-05-26T19:25:21.148Z,18.34
2019-05-26T19:27:50.619Z,18.23
2019-05-26T19:30:20.556Z,18.11
2019-05-26T19:32:51.998Z,17.98
2019-05-26T19:35:21.420Z,17.95
2019-05-26T19:37:50.909Z,17.84
2019-05-26T19:40:20.531Z,17.74
2019-05-26T19:42:49.992Z,17.70
2019-05-26T19:45:19.457Z,17.63
2019-05-26T19:47:48.927Z,17.58
2019-05-26T19:50:18.396Z,17.53
2019-05-26T19:52:49.923Z,17.54
2019-05-26T19:55:19.087Z,17.52
2019-05-26T19:57:48.839Z,17.42
2019-05-26T20:00:18.781Z,17.36
2019-05-26T20:02:48.334Z,17.28
2019-05-26T20:05:17.972Z,17.25
2019-05-26T20:07:47.445Z,17.23
2019-05-26T20:10:17.061Z,17.17
2019-05-26T20:12:46.546Z,17.09
2019-05-26T20:15:16.431Z,16.99
2019-05-26T20:17:46.253Z,16.90
2019-05-26T20:20:15.930Z,16.81
2019-05-26T20:22:45.810Z,16.76
2019-05-26T20:25:15.442Z,16.73
2019-05-26T20:27:44.923Z,16.67
2019-05-26T20:30:14.607Z,16.60
2019-05-26T20:32:44.584Z,16.55
2019-05-26T20:35:15.111Z,16.52
2019-05-26T20:37:44.734Z,16.46
2019-05-26T20:40:14.626Z,16.42
2019-05-26T20:42:44.091Z,16.36
2019-05-26T20:45:14.203Z,16.30
2019-05-26T20:47:43.679Z,16.24
2019-05-26T20:50:28.124Z,16.17
2019-05-26T20:52:44.889Z,16.09
2019-05-26T20:55:14.686Z,16.00
2019-05-26T20:57:44.158Z,15.97
2019-05-26T21:00:15.053Z,16.00
2019-05-26T21:02:44.909Z,16.01
2019-05-26T21:05:16.476Z,15.97
2019-05-26T21:07:45.952Z,15.87
2019-05-26T21:10:15.916Z,15.81
2019-05-26T21:12:45.424Z,15.75
2019-05-26T21:15:15.633Z,15.68
2019-05-26T21:17:45.099Z,15.62
2019-05-26T21:20:16.007Z,15.56
2019-05-26T21:22:45.440Z,15.50
2019-05-26T21:25:15.637Z,15.60
2019-05-26T21:27:45.117Z,15.62
2019-05-26T21:30:15.330Z,15.57
2019-05-26T21:32:44.792Z,15.54
2019-05-26T21:35:14.854Z,15.48
2019-05-26T21:37:44.310Z,15.39
2019-05-26T21:40:15.098Z,15.48
2019-05-26T21:42:44.567Z,15.92
2019-05-26T21:45:15.405Z,15.95
2019-05-26T21:47:45.546Z,15.86
2019-05-26T21:50:16.187Z,15.77
2019-05-26T21:53:05.326Z,15.63
2019-05-26T21:55:38.812Z,15.61
2019-05-26T21:58:08.362Z,15.79
2019-05-26T22:00:39.501Z,15.66
2019-05-26T22:03:09.126Z,15.52
2019-05-26T22:05:38.580Z,15.40
2019-05-26T22:08:08.026Z,15.30
2019-05-26T22:10:37.871Z,15.16
2019-05-26T22:13:07.313Z,15.07
2019-05-26T22:15:36.846Z,15.00
2019-05-26T22:18:06.288Z,15.07
2019-05-26T22:20:36.155Z,15.06
2019-05-26T22:23:05.607Z,15.07
2019-05-26T22:25:35.060Z,15.04
2019-05-26T22:28:04.496Z,15.22
2019-05-26T22:30:33.970Z,15.11
2019-05-26T22:33:03.407Z,14.99
2019-05-26T22:35:33.107Z,15.07
2019-05-26T22:38:02.567Z,15.16
2019-05-26T22:40:32.064Z,15.07
2019-05-26T22:43:01.513Z,14.94
2019-05-26T22:45:30.978Z,14.95
2019-05-26T22:48:00.431Z,14.86
2019-05-26T22:50:29.903Z,14.78
2019-05-26T22:52:59.476Z,14.70
2019-05-26T22:55:28.981Z,15.27
2019-05-26T22:57:58.494Z,15.09
2019-05-26T23:00:28.012Z,15.05
2019-05-26T23:02:57.519Z,14.98
2019-05-26T23:05:26.929Z,15.09
2019-05-26T23:07:56.401Z,15.25
2019-05-26T23:10:26.298Z,15.22
2019-05-26T23:12:55.753Z,15.14
2019-05-26T23:15:25.624Z,15.02
2019-05-26T23:17:55.072Z,15.00
2019-05-26T23:20:24.553Z,14.92
2019-05-26T23:22:53.990Z,14.82
2019-05-26T23:27:51.775Z,14.64
2019-05-26T23:30:21.404Z,14.56
2019-05-26T23:32:50.858Z,14.46
2019-05-26T23:35:20.347Z,14.35
2019-05-26T23:37:49.796Z,14.43
2019-05-26T23:40:19.509Z,14.54
2019-05-26T23:42:48.969Z,14.65
2019-05-26T23:45:18.453Z,14.66
2019-05-26T23:47:47.918Z,14.59
2019-05-26T23:50:17.374Z,14.56
2019-05-26T23:52:46.843Z,14.49
2019-05-26T23:55:16.302Z,14.39
2019-05-26T23:57:45.755Z,14.25
